KMOT

Minot International Airport

Minot, North Dakota, USA
KMOT 181132Z 1812/1912 VRB05KT P6SM FEW050 SCT250 FM181800 07009KT P6SM BKN110 BKN250 FM190500 VRB05KT P6SM BKN050 BKN250
Issued Valid From Valid To
Jun-18 @ 11:32 UTC
(2 hours ago)
Jun-18 @ 12:00 UTC
(an hour ago)
Jun-19 @ 12:00 UTC
(in 23 hours)
Jun-18 @ 12:00 to Jun-18 @ 18:00
KMOT 181132Z 1812/1912 VRB05KT P6SM FEW050 SCT250
Wind Visibility Clouds
Variable at 5 knots Greater than 6 miles
  • Few at 5,000' AGL
  • Scattered at 25,000' AGL
From Jun-18 @ 18:00 to Jun-19 @ 05:00
FM181800 07009KT P6SM BKN110 BKN250
Wind Visibility Clouds
70° at 9 knots Greater than 6 miles
  • Broken at 11,000' AGL
  • Broken at 25,000' AGL
From Jun-19 @ 05:00 to Jun-19 @ 12:00
FM190500 VRB05KT P6SM BKN050 BKN250
Wind Visibility Clouds
Variable at 5 knots Greater than 6 miles
  • Broken at 5,000' AGL
  • Broken at 25,000' AGL
KMOT 181132Z 1812/1912 VRB05KT P6SM FEW050 SCT250 FM181800 07009KT P6SM BKN110 BKN250 FM190500 VRB05KT P6SM BKN050 BKN250
Issued Jun-18 @ 11:32 UTC
(2 hours ago)
Valid From Jun-18 @ 12:00 UTC
(an hour ago)
Valid To Jun-19 @ 12:00 UTC
(in 23 hours)
Jun-18 @ 12:00 - Jun-18 @ 18:00
Wind Visibility
Variable at 5 knots Greater than 6 miles
Clouds
  • Few at 5,000' AGL
  • Scattered at 25,000' AGL
From Jun-18 @ 18:00 - Jun-19 @ 05:00
Wind Visibility
70° at 9 knots Greater than 6 miles
Clouds
  • Broken at 11,000' AGL
  • Broken at 25,000' AGL
From Jun-19 @ 05:00 - Jun-19 @ 12:00
Wind Visibility
Variable at 5 knots Greater than 6 miles
Clouds
  • Broken at 5,000' AGL
  • Broken at 25,000' AGL